Hannibal, NY

9:55 PM EST on November 23, 2014 (GMT -0500)
Western Oswego County | Change Station
CLOSE
Current Station
Personal Weather Station
Location: Hannibal, NY
Elevation: 328 ft
Nearby Weather Stations
Active Advisory: High Wind Watch

Elev 328 ft 43.36 °N, 76.60 °W | Updated 42 seconds ago

Mostly Cloudy
Mostly Cloudy
48.0 °F
Feels Like 45 °F
N
6.8
Wind Variable Wind from SE

Today
High -- | Low -- °F
--% Chance of Precip.
Yesterday
High -- | Low -- °F
Precip. -- in
7:09 AM 4:35 PM
Waxing Crescent, 3% visible
Pressure 29.88 in
Visibility 10.0 miles
Clouds Clear
Windchill 45 °F
Dew Point 38 °F
Humidity 69%
Rainfall 0.09 in
Snow Depth Not available.
UV 0 out of 12
Pollen .10 out of 12
Air Quality Not available.
Flu Activity Not available.
METAR KFZY 240154Z AUTO VRB06KT 10SM CLR 08/02 A2987 RMK AO2 SLP117 T00830022

More Conditions Fewer Conditions

Pressure 29.88 in
Visibility 10.0 miles
Clouds Clear
Windchill 45 °F
Dew Point 38 °F
Humidity 69%
Rainfall 0.09 in
Snow Depth Not available.
UV 0 out of 12
Pollen .10 out of 12
Air Quality Not available.
Flu Activity Not available.
METAR KFZY 240154Z AUTO VRB06KT 10SM CLR 08/02 A2987 RMK AO2 SLP117 T00830022

More Conditions Fewer Conditions

10-Day Weather Forecast

Almanac

Astronomy

Nov. 23, 2014 Rise Set
Actual Time
Civil Twilight
Nautical Twilight
Astronomical Twilight
Moon
Length of Visible Light
Length of Day
Tomorrow will be .
, % of the Moon is Illuminated

Today's Extremes

State Highs State Lows

Community

WunderPhotos

Upload Photos

1,773,257 photos uploaded!

WunderBlogs® & News

Nearby

Air Quality

  Air Quality AQ Index Pollutant
Not available.

Snow Depth

Station Depth Elevation

Earthquake Activity

City Distance Mag. Time & Date
Minimum magnitude displayed is 2.5.

Coastal Water Temperatures

Place Temperature

Nearby Weather Stations